sensor_id;sensor_type;location;lat;lon;timestamp;temperature;humidity
18906;DHT22;9585;51.018;4.282;2023-06-22T00:00:35;17.20;99.90
18906;DHT22;9585;51.018;4.282;2023-06-22T00:03:05;17.20;99.90
18906;DHT22;9585;51.018;4.282;2023-06-22T00:05:32;17.10;99.90
18906;DHT22;9585;51.018;4.282;2023-06-22T00:08:03;17.10;99.90
18906;DHT22;9585;51.018;4.282;2023-06-22T00:10:31;17.10;99.90
18906;DHT22;9585;51.018;4.282;2023-06-22T00:12:58;17.10;99.90
18906;DHT22;9585;51.018;4.282;2023-06-22T00:15:28;17.10;99.90
18906;DHT22;9585;51.018;4.282;2023-06-22T00:17:55;17.10;99.90
18906;DHT22;9585;51.018;4.282;2023-06-22T00:20:25;17.10;99.90
18906;DHT22;9585;51.018;4.282;2023-06-22T00:22:59;17.10;99.90
18906;DHT22;9585;51.018;4.282;2023-06-22T00:25:27;17.10;99.90
18906;DHT22;9585;51.018;4.282;2023-06-22T00:27:56;17.00;99.90
18906;DHT22;9585;51.018;4.282;2023-06-22T00:30:23;16.90;99.90
18906;DHT22;9585;51.018;4.282;2023-06-22T00:32:53;16.90;99.90
18906;DHT22;9585;51.018;4.282;2023-06-22T00:35:21;16.80;99.90
18906;DHT22;9585;51.018;4.282;2023-06-22T00:37:49;16.70;99.90
18906;DHT22;9585;51.018;4.282;2023-06-22T00:40:27;16.60;99.90
18906;DHT22;9585;51.018;4.282;2023-06-22T00:42:55;16.60;99.90
18906;DHT22;9585;51.018;4.282;2023-06-22T00:45:23;16.60;99.90
18906;DHT22;9585;51.018;4.282;2023-06-22T00:47:56;16.60;99.90
18906;DHT22;9585;51.018;4.282;2023-06-22T00:50:26;16.70;99.90
18906;DHT22;9585;51.018;4.282;2023-06-22T00:52:56;16.60;99.90
18906;DHT22;9585;51.018;4.282;2023-06-22T00:55:38;16.60;99.90
18906;DHT22;9585;51.018;4.282;2023-06-22T00:58:09;16.60;99.90
18906;DHT22;9585;51.018;4.282;2023-06-22T01:00:38;16.50;99.90
18906;DHT22;9585;51.018;4.282;2023-06-22T01:03:08;16.60;99.90
18906;DHT22;9585;51.018;4.282;2023-06-22T01:05:37;16.50;99.90
18906;DHT22;9585;51.018;4.282;2023-06-22T01:08:12;16.50;99.90
18906;DHT22;9585;51.018;4.282;2023-06-22T01:10:46;16.50;99.90
18906;DHT22;9585;51.018;4.282;2023-06-22T01:13:28;16.40;99.90
18906;DHT22;9585;51.018;4.282;2023-06-22T01:16:02;16.30;99.90
18906;DHT22;9585;51.018;4.282;2023-06-22T01:18:35;16.30;99.90
18906;DHT22;9585;51.018;4.282;2023-06-22T01:21:04;16.30;99.90
18906;DHT22;9585;51.018;4.282;2023-06-22T01:23:50;16.30;99.90
18906;DHT22;9585;51.018;4.282;2023-06-22T01:26:22;16.30;99.90
18906;DHT22;9585;51.018;4.282;2023-06-22T01:28:57;16.30;99.90
18906;DHT22;9585;51.018;4.282;2023-06-22T01:31:27;16.30;99.90
18906;DHT22;9585;51.018;4.282;2023-06-22T01:33:59;16.30;99.90
18906;DHT22;9585;51.018;4.282;2023-06-22T01:36:28;16.30;99.90
18906;DHT22;9585;51.018;4.282;2023-06-22T01:38:57;16.40;99.90
18906;DHT22;9585;51.018;4.282;2023-06-22T01:41:27;16.40;99.90
18906;DHT22;9585;51.018;4.282;2023-06-22T01:44:10;16.30;99.90
18906;DHT22;9585;51.018;4.282;2023-06-22T01:46:41;16.30;99.90
18906;DHT22;9585;51.018;4.282;2023-06-22T01:49:09;16.40;99.90
18906;DHT22;9585;51.018;4.282;2023-06-22T01:51:37;16.40;99.90
18906;DHT22;9585;51.018;4.282;2023-06-22T01:54:06;16.40;99.90
18906;DHT22;9585;51.018;4.282;2023-06-22T01:56:35;16.40;99.90
18906;DHT22;9585;51.018;4.282;2023-06-22T01:59:11;16.30;99.90
18906;DHT22;9585;51.018;4.282;2023-06-22T02:01:42;16.30;99.90
18906;DHT22;9585;51.018;4.282;2023-06-22T02:04:17;16.30;99.90
18906;DHT22;9585;51.018;4.282;2023-06-22T02:06:47;16.20;99.90
18906;DHT22;9585;51.018;4.282;2023-06-22T02:09:17;16.20;99.90
18906;DHT22;9585;51.018;4.282;2023-06-22T02:11:46;16.20;99.90
18906;DHT22;9585;51.018;4.282;2023-06-22T02:14:17;16.20;99.90
18906;DHT22;9585;51.018;4.282;2023-06-22T02:16:46;16.20;99.90
18906;DHT22;9585;51.018;4.282;2023-06-22T02:19:14;16.20;99.90
18906;DHT22;9585;51.018;4.282;2023-06-22T02:21:57;16.00;99.90
18906;DHT22;9585;51.018;4.282;2023-06-22T02:24:32;15.90;99.90
18906;DHT22;9585;51.018;4.282;2023-06-22T02:27:01;15.90;99.90
18906;DHT22;9585;51.018;4.282;2023-06-22T02:29:30;16.00;99.90
18906;DHT22;9585;51.018;4.282;2023-06-22T02:32:00;16.00;99.90
18906;DHT22;9585;51.018;4.282;2023-06-22T02:34:28;16.00;99.90
18906;DHT22;9585;51.018;4.282;2023-06-22T02:36:56;16.00;99.90
18906;DHT22;9585;51.018;4.282;2023-06-22T02:39:26;16.00;99.90
18906;DHT22;9585;51.018;4.282;2023-06-22T02:41:54;16.00;99.90
18906;DHT22;9585;51.018;4.282;2023-06-22T02:44:22;16.00;99.90
18906;DHT22;9585;51.018;4.282;2023-06-22T02:46:51;16.00;99.90
18906;DHT22;9585;51.018;4.282;2023-06-22T02:49:20;15.90;99.90
18906;DHT22;9585;51.018;4.282;2023-06-22T02:51:48;16.00;99.90
18906;DHT22;9585;51.018;4.282;2023-06-22T02:54:16;16.00;99.90
18906;DHT22;9585;51.018;4.282;2023-06-22T02:56:44;15.90;99.90
18906;DHT22;9585;51.018;4.282;2023-06-22T02:59:12;15.90;99.90
18906;DHT22;9585;51.018;4.282;2023-06-22T03:01:42;15.90;99.90
18906;DHT22;9585;51.018;4.282;2023-06-22T03:04:12;15.80;99.90
18906;DHT22;9585;51.018;4.282;2023-06-22T03:06:41;15.80;99.90
18906;DHT22;9585;51.018;4.282;2023-06-22T03:09:17;15.80;99.90
18906;DHT22;9585;51.018;4.282;2023-06-22T03:11:44;15.80;99.90
18906;DHT22;9585;51.018;4.282;2023-06-22T03:14:14;15.80;99.90
18906;DHT22;9585;51.018;4.282;2023-06-22T03:16:42;15.80;99.90
18906;DHT22;9585;51.018;4.282;2023-06-22T03:19:12;15.80;99.90
18906;DHT22;9585;51.018;4.282;2023-06-22T03:21:40;15.80;99.90
18906;DHT22;9585;51.018;4.282;2023-06-22T03:24:08;15.80;99.90
18906;DHT22;9585;51.018;4.282;2023-06-22T03:26:35;15.80;99.90
18906;DHT22;9585;51.018;4.282;2023-06-22T03:29:03;15.80;99.90
18906;DHT22;9585;51.018;4.282;2023-06-22T03:31:31;15.80;99.90
18906;DHT22;9585;51.018;4.282;2023-06-22T03:33:58;15.80;99.90
18906;DHT22;9585;51.018;4.282;2023-06-22T03:36:28;15.80;99.90
18906;DHT22;9585;51.018;4.282;2023-06-22T03:38:55;15.80;99.90
18906;DHT22;9585;51.018;4.282;2023-06-22T03:41:23;15.70;99.90
18906;DHT22;9585;51.018;4.282;2023-06-22T03:43:53;15.80;99.90
18906;DHT22;9585;51.018;4.282;2023-06-22T03:46:21;15.70;99.90
18906;DHT22;9585;51.018;4.282;2023-06-22T03:48:49;15.80;99.90
18906;DHT22;9585;51.018;4.282;2023-06-22T03:51:20;15.80;99.90
18906;DHT22;9585;51.018;4.282;2023-06-22T03:53:50;15.80;99.90
18906;DHT22;9585;51.018;4.282;2023-06-22T03:56:24;15.70;99.90
18906;DHT22;9585;51.018;4.282;2023-06-22T03:58:52;15.70;99.90
18906;DHT22;9585;51.018;4.282;2023-06-22T04:01:19;15.70;99.90
18906;DHT22;9585;51.018;4.282;2023-06-22T04:03:47;15.70;99.90
18906;DHT22;9585;51.018;4.282;2023-06-22T04:06:16;15.60;99.90
18906;DHT22;9585;51.018;4.282;2023-06-22T04:08:45;15.70;99.90
18906;DHT22;9585;51.018;4.282;2023-06-22T04:11:18;15.70;99.90
18906;DHT22;9585;51.018;4.282;2023-06-22T04:13:46;15.70;99.90
18906;DHT22;9585;51.018;4.282;2023-06-22T04:16:15;15.70;99.90
18906;DHT22;9585;51.018;4.282;2023-06-22T04:18:43;15.80;99.90
18906;DHT22;9585;51.018;4.282;2023-06-22T04:21:11;15.80;99.90
18906;DHT22;9585;51.018;4.282;2023-06-22T04:23:38;15.90;99.90
18906;DHT22;9585;51.018;4.282;2023-06-22T04:26:06;15.90;99.90
18906;DHT22;9585;51.018;4.282;2023-06-22T04:28:35;15.90;99.90
18906;DHT22;9585;51.018;4.282;2023-06-22T04:31:05;16.00;99.90
18906;DHT22;9585;51.018;4.282;2023-06-22T04:33:33;16.00;99.90
18906;DHT22;9585;51.018;4.282;2023-06-22T04:36:01;16.20;99.90
18906;DHT22;9585;51.018;4.282;2023-06-22T04:38:29;16.30;99.90
18906;DHT22;9585;51.018;4.282;2023-06-22T04:40:59;16.40;99.90
18906;DHT22;9585;51.018;4.282;2023-06-22T04:43:28;16.40;99.90
18906;DHT22;9585;51.018;4.282;2023-06-22T04:45:58;16.50;99.90
18906;DHT22;9585;51.018;4.282;2023-06-22T04:48:29;16.60;99.90
18906;DHT22;9585;51.018;4.282;2023-06-22T04:50:58;16.80;99.90
18906;DHT22;9585;51.018;4.282;2023-06-22T04:53:30;16.90;99.90
18906;DHT22;9585;51.018;4.282;2023-06-22T04:55:59;17.00;99.90
18906;DHT22;9585;51.018;4.282;2023-06-22T04:58:26;17.00;99.90
18906;DHT22;9585;51.018;4.282;2023-06-22T05:00:54;17.00;99.90
18906;DHT22;9585;51.018;4.282;2023-06-22T05:03:25;17.10;99.90
18906;DHT22;9585;51.018;4.282;2023-06-22T05:05:53;17.20;99.90
18906;DHT22;9585;51.018;4.282;2023-06-22T05:08:21;17.20;99.90
18906;DHT22;9585;51.018;4.282;2023-06-22T05:10:52;17.30;99.90
18906;DHT22;9585;51.018;4.282;2023-06-22T05:13:20;17.30;99.90
18906;DHT22;9585;51.018;4.282;2023-06-22T05:15:48;17.30;99.90
18906;DHT22;9585;51.018;4.282;2023-06-22T05:18:15;17.30;99.90
18906;DHT22;9585;51.018;4.282;2023-06-22T05:20:44;17.40;99.90
18906;DHT22;9585;51.018;4.282;2023-06-22T05:23:11;17.50;99.90
18906;DHT22;9585;51.018;4.282;2023-06-22T05:25:39;17.70;99.90
18906;DHT22;9585;51.018;4.282;2023-06-22T05:28:06;17.80;99.90
18906;DHT22;9585;51.018;4.282;2023-06-22T05:30:37;17.90;99.90
18906;DHT22;9585;51.018;4.282;2023-06-22T05:33:04;18.10;99.90
18906;DHT22;9585;51.018;4.282;2023-06-22T05:35:32;18.20;99.90
18906;DHT22;9585;51.018;4.282;2023-06-22T05:38:01;18.30;99.90
18906;DHT22;9585;51.018;4.282;2023-06-22T05:40:28;18.40;99.90
18906;DHT22;9585;51.018;4.282;2023-06-22T05:42:56;18.50;99.90
18906;DHT22;9585;51.018;4.282;2023-06-22T05:45:23;18.40;99.90
18906;DHT22;9585;51.018;4.282;2023-06-22T05:47:51;18.40;99.90
18906;DHT22;9585;51.018;4.282;2023-06-22T05:50:19;18.30;99.90
18906;DHT22;9585;51.018;4.282;2023-06-22T05:52:47;18.30;99.90
18906;DHT22;9585;51.018;4.282;2023-06-22T05:55:16;18.10;99.90
18906;DHT22;9585;51.018;4.282;2023-06-22T05:57:44;18.10;99.90
18906;DHT22;9585;51.018;4.282;2023-06-22T06:00:14;18.20;99.90
18906;DHT22;9585;51.018;4.282;2023-06-22T06:02:42;18.30;99.90
18906;DHT22;9585;51.018;4.282;2023-06-22T06:05:11;18.30;99.90
18906;DHT22;9585;51.018;4.282;2023-06-22T06:07:40;18.40;99.90
18906;DHT22;9585;51.018;4.282;2023-06-22T06:10:11;18.50;99.90
18906;DHT22;9585;51.018;4.282;2023-06-22T06:12:41;18.50;99.90
18906;DHT22;9585;51.018;4.282;2023-06-22T06:15:10;18.50;99.90
18906;DHT22;9585;51.018;4.282;2023-06-22T06:17:46;18.50;99.90
18906;DHT22;9585;51.018;4.282;2023-06-22T06:20:14;18.50;99.90
18906;DHT22;9585;51.018;4.282;2023-06-22T06:22:42;18.60;99.90
18906;DHT22;9585;51.018;4.282;2023-06-22T06:25:27;18.60;99.90
18906;DHT22;9585;51.018;4.282;2023-06-22T06:27:59;18.60;99.90
18906;DHT22;9585;51.018;4.282;2023-06-22T06:30:29;18.70;99.90
18906;DHT22;9585;51.018;4.282;2023-06-22T06:32:58;18.60;99.90
18906;DHT22;9585;51.018;4.282;2023-06-22T06:35:27;18.70;99.90
18906;DHT22;9585;51.018;4.282;2023-06-22T06:37:56;18.70;99.90
18906;DHT22;9585;51.018;4.282;2023-06-22T06:40:32;18.80;99.90
18906;DHT22;9585;51.018;4.282;2023-06-22T06:43:03;18.80;99.90
18906;DHT22;9585;51.018;4.282;2023-06-22T06:45:32;18.90;99.90
18906;DHT22;9585;51.018;4.282;2023-06-22T06:48:05;19.00;99.90
18906;DHT22;9585;51.018;4.282;2023-06-22T06:50:36;19.10;99.90
18906;DHT22;9585;51.018;4.282;2023-06-22T06:53:05;19.10;99.90
18906;DHT22;9585;51.018;4.282;2023-06-22T06:55:33;19.20;99.90
18906;DHT22;9585;51.018;4.282;2023-06-22T06:58:03;19.20;99.90
18906;DHT22;9585;51.018;4.282;2023-06-22T07:00:33;19.20;99.90
18906;DHT22;9585;51.018;4.282;2023-06-22T07:03:01;19.20;99.90
18906;DHT22;9585;51.018;4.282;2023-06-22T07:05:29;19.30;99.90
18906;DHT22;9585;51.018;4.282;2023-06-22T07:07:58;19.40;99.90
18906;DHT22;9585;51.018;4.282;2023-06-22T07:10:25;19.50;99.90
18906;DHT22;9585;51.018;4.282;2023-06-22T07:12:54;19.50;99.90
18906;DHT22;9585;51.018;4.282;2023-06-22T07:15:24;19.50;99.90
18906;DHT22;9585;51.018;4.282;2023-06-22T07:17:55;19.60;99.90
18906;DHT22;9585;51.018;4.282;2023-06-22T07:20:34;19.70;99.90
18906;DHT22;9585;51.018;4.282;2023-06-22T07:23:05;19.70;99.90
18906;DHT22;9585;51.018;4.282;2023-06-22T07:25:32;19.80;99.90
18906;DHT22;9585;51.018;4.282;2023-06-22T07:28:04;19.90;99.90
18906;DHT22;9585;51.018;4.282;2023-06-22T07:30:36;20.00;99.90
18906;DHT22;9585;51.018;4.282;2023-06-22T07:33:07;20.30;99.90
18906;DHT22;9585;51.018;4.282;2023-06-22T07:35:38;20.70;99.90
18906;DHT22;9585;51.018;4.282;2023-06-22T07:38:17;20.90;99.90
18906;DHT22;9585;51.018;4.282;2023-06-22T07:40:45;21.20;99.90
18906;DHT22;9585;51.018;4.282;2023-06-22T07:43:19;21.40;99.90
18906;DHT22;9585;51.018;4.282;2023-06-22T07:45:55;21.50;99.90
18906;DHT22;9585;51.018;4.282;2023-06-22T07:48:22;21.30;99.90
18906;DHT22;9585;51.018;4.282;2023-06-22T07:50:50;21.10;99.90
18906;DHT22;9585;51.018;4.282;2023-06-22T07:53:19;21.10;99.90
18906;DHT22;9585;51.018;4.282;2023-06-22T07:55:51;21.10;99.90
18906;DHT22;9585;51.018;4.282;2023-06-22T07:58:22;21.20;99.90
18906;DHT22;9585;51.018;4.282;2023-06-22T08:00:51;21.10;99.90
18906;DHT22;9585;51.018;4.282;2023-06-22T08:03:19;21.00;99.90
18906;DHT22;9585;51.018;4.282;2023-06-22T08:05:49;20.90;99.90
18906;DHT22;9585;51.018;4.282;2023-06-22T08:08:19;20.60;99.90
18906;DHT22;9585;51.018;4.282;2023-06-22T08:10:47;20.40;99.90
18906;DHT22;9585;51.018;4.282;2023-06-22T08:13:15;20.20;99.90
18906;DHT22;9585;51.018;4.282;2023-06-22T08:15:43;20.20;99.90
18906;DHT22;9585;51.018;4.282;2023-06-22T08:18:12;20.40;99.90
18906;DHT22;9585;51.018;4.282;2023-06-22T08:20:45;20.60;99.90
18906;DHT22;9585;51.018;4.282;2023-06-22T08:23:23;20.60;99.90
18906;DHT22;9585;51.018;4.282;2023-06-22T08:26:05;20.70;99.90
18906;DHT22;9585;51.018;4.282;2023-06-22T08:28:38;20.70;99.90
18906;DHT22;9585;51.018;4.282;2023-06-22T08:31:07;20.70;99.90
18906;DHT22;9585;51.018;4.282;2023-06-22T08:33:37;20.70;99.90
18906;DHT22;9585;51.018;4.282;2023-06-22T08:36:05;20.70;99.90
18906;DHT22;9585;51.018;4.282;2023-06-22T08:38:34;20.60;99.90
18906;DHT22;9585;51.018;4.282;2023-06-22T08:41:01;20.60;99.90
18906;DHT22;9585;51.018;4.282;2023-06-22T08:43:29;20.60;99.90
18906;DHT22;9585;51.018;4.282;2023-06-22T08:45:59;20.60;99.90
18906;DHT22;9585;51.018;4.282;2023-06-22T08:48:28;20.70;99.90
18906;DHT22;9585;51.018;4.282;2023-06-22T08:50:57;20.70;99.90
18906;DHT22;9585;51.018;4.282;2023-06-22T08:53:24;20.70;99.90
18906;DHT22;9585;51.018;4.282;2023-06-22T08:55:52;20.50;99.90
18906;DHT22;9585;51.018;4.282;2023-06-22T08:58:22;20.50;99.90
18906;DHT22;9585;51.018;4.282;2023-06-22T09:00:50;20.60;99.90
18906;DHT22;9585;51.018;4.282;2023-06-22T09:03:17;20.70;99.90
18906;DHT22;9585;51.018;4.282;2023-06-22T09:05:46;20.80;99.90
18906;DHT22;9585;51.018;4.282;2023-06-22T09:08:15;20.90;99.90
18906;DHT22;9585;51.018;4.282;2023-06-22T09:10:42;20.90;99.90
18906;DHT22;9585;51.018;4.282;2023-06-22T09:13:11;20.90;99.90
18906;DHT22;9585;51.018;4.282;2023-06-22T09:15:38;20.90;99.90
18906;DHT22;9585;51.018;4.282;2023-06-22T09:18:06;20.90;99.90
18906;DHT22;9585;51.018;4.282;2023-06-22T09:20:36;20.80;99.90
18906;DHT22;9585;51.018;4.282;2023-06-22T09:23:04;20.80;99.90
18906;DHT22;9585;51.018;4.282;2023-06-22T09:25:33;20.70;99.90
18906;DHT22;9585;51.018;4.282;2023-06-22T09:28:01;20.80;99.90
18906;DHT22;9585;51.018;4.282;2023-06-22T09:30:28;20.80;99.90
18906;DHT22;9585;51.018;4.282;2023-06-22T09:32:56;20.90;99.90
18906;DHT22;9585;51.018;4.282;2023-06-22T09:35:23;20.90;99.90
18906;DHT22;9585;51.018;4.282;2023-06-22T09:37:51;20.90;99.90
18906;DHT22;9585;51.018;4.282;2023-06-22T09:40:18;21.00;99.90
18906;DHT22;9585;51.018;4.282;2023-06-22T09:42:47;21.00;99.90
18906;DHT22;9585;51.018;4.282;2023-06-22T09:45:15;21.00;99.90
18906;DHT22;9585;51.018;4.282;2023-06-22T09:47:42;21.10;99.90
18906;DHT22;9585;51.018;4.282;2023-06-22T09:50:10;21.00;99.90
18906;DHT22;9585;51.018;4.282;2023-06-22T09:52:38;20.90;99.90
18906;DHT22;9585;51.018;4.282;2023-06-22T09:55:06;20.90;99.90
18906;DHT22;9585;51.018;4.282;2023-06-22T09:57:33;20.70;99.90
18906;DHT22;9585;51.018;4.282;2023-06-22T10:00:03;20.70;99.90
18906;DHT22;9585;51.018;4.282;2023-06-22T10:02:34;20.70;99.90
18906;DHT22;9585;51.018;4.282;2023-06-22T10:05:02;20.60;99.90
18906;DHT22;9585;51.018;4.282;2023-06-22T10:07:29;20.40;99.90
18906;DHT22;9585;51.018;4.282;2023-06-22T10:09:56;20.30;99.90
18906;DHT22;9585;51.018;4.282;2023-06-22T10:12:25;20.20;99.90
18906;DHT22;9585;51.018;4.282;2023-06-22T10:14:52;20.10;99.90
18906;DHT22;9585;51.018;4.282;2023-06-22T10:17:21;20.10;99.90
18906;DHT22;9585;51.018;4.282;2023-06-22T10:19:49;20.00;99.90
18906;DHT22;9585;51.018;4.282;2023-06-22T10:22:17;19.80;99.90
18906;DHT22;9585;51.018;4.282;2023-06-22T10:24:44;19.70;99.90
18906;DHT22;9585;51.018;4.282;2023-06-22T10:27:12;19.50;99.90
18906;DHT22;9585;51.018;4.282;2023-06-22T10:29:39;19.50;99.90
18906;DHT22;9585;51.018;4.282;2023-06-22T10:32:08;19.50;99.90
18906;DHT22;9585;51.018;4.282;2023-06-22T10:34:38;19.40;99.90
18906;DHT22;9585;51.018;4.282;2023-06-22T10:37:07;19.00;99.90
18906;DHT22;9585;51.018;4.282;2023-06-22T10:39:38;18.70;99.90
18906;DHT22;9585;51.018;4.282;2023-06-22T10:42:08;18.60;99.90
18906;DHT22;9585;51.018;4.282;2023-06-22T10:44:35;18.50;99.90
18906;DHT22;9585;51.018;4.282;2023-06-22T10:47:03;18.20;99.90
18906;DHT22;9585;51.018;4.282;2023-06-22T10:49:30;18.10;99.90
18906;DHT22;9585;51.018;4.282;2023-06-22T10:51:59;17.90;99.90
18906;DHT22;9585;51.018;4.282;2023-06-22T10:54:27;17.80;99.90
18906;DHT22;9585;51.018;4.282;2023-06-22T10:56:54;17.80;99.90
18906;DHT22;9585;51.018;4.282;2023-06-22T10:59:22;17.70;99.90
18906;DHT22;9585;51.018;4.282;2023-06-22T11:01:50;17.60;99.90
18906;DHT22;9585;51.018;4.282;2023-06-22T11:04:18;17.60;99.90
18906;DHT22;9585;51.018;4.282;2023-06-22T11:06:45;17.50;99.90
18906;DHT22;9585;51.018;4.282;2023-06-22T11:09:14;17.50;99.90
18906;DHT22;9585;51.018;4.282;2023-06-22T11:11:46;17.40;99.90
18906;DHT22;9585;51.018;4.282;2023-06-22T11:14:13;17.40;99.90
18906;DHT22;9585;51.018;4.282;2023-06-22T11:16:41;17.50;99.90
18906;DHT22;9585;51.018;4.282;2023-06-22T11:19:08;17.50;99.90
18906;DHT22;9585;51.018;4.282;2023-06-22T11:21:35;17.60;99.90
18906;DHT22;9585;51.018;4.282;2023-06-22T11:24:03;17.60;99.90
18906;DHT22;9585;51.018;4.282;2023-06-22T11:26:33;17.60;99.90
18906;DHT22;9585;51.018;4.282;2023-06-22T11:29:01;17.80;99.90
18906;DHT22;9585;51.018;4.282;2023-06-22T11:31:30;17.90;99.90
18906;DHT22;9585;51.018;4.282;2023-06-22T11:33:58;18.00;99.90
18906;DHT22;9585;51.018;4.282;2023-06-22T11:36:26;18.10;99.90
18906;DHT22;9585;51.018;4.282;2023-06-22T11:38:55;18.20;99.90
18906;DHT22;9585;51.018;4.282;2023-06-22T11:41:22;18.20;99.90
18906;DHT22;9585;51.018;4.282;2023-06-22T11:43:51;18.40;99.90
18906;DHT22;9585;51.018;4.282;2023-06-22T11:46:18;18.40;99.90
18906;DHT22;9585;51.018;4.282;2023-06-22T11:48:46;18.40;99.90
18906;DHT22;9585;51.018;4.282;2023-06-22T11:51:14;18.40;99.90
18906;DHT22;9585;51.018;4.282;2023-06-22T11:53:54;18.40;99.90
18906;DHT22;9585;51.018;4.282;2023-06-22T11:56:22;18.50;99.90
18906;DHT22;9585;51.018;4.282;2023-06-22T12:01:37;18.60;99.90
18906;DHT22;9585;51.018;4.282;2023-06-22T12:04:05;18.60;99.90
18906;DHT22;9585;51.018;4.282;2023-06-22T12:06:32;18.70;99.90
18906;DHT22;9585;51.018;4.282;2023-06-22T12:09:02;18.80;99.90
18906;DHT22;9585;51.018;4.282;2023-06-22T12:11:30;18.70;99.90
18906;DHT22;9585;51.018;4.282;2023-06-22T12:13:57;18.80;99.90
18906;DHT22;9585;51.018;4.282;2023-06-22T12:16:28;18.90;99.90
18906;DHT22;9585;51.018;4.282;2023-06-22T12:18:57;18.90;99.90
18906;DHT22;9585;51.018;4.282;2023-06-22T12:21:24;18.90;99.90
18906;DHT22;9585;51.018;4.282;2023-06-22T12:23:52;19.00;99.90
18906;DHT22;9585;51.018;4.282;2023-06-22T12:26:19;18.80;99.90
18906;DHT22;9585;51.018;4.282;2023-06-22T12:28:47;18.80;99.90
18906;DHT22;9585;51.018;4.282;2023-06-22T12:31:15;18.70;99.90
18906;DHT22;9585;51.018;4.282;2023-06-22T12:33:42;18.80;99.90
18906;DHT22;9585;51.018;4.282;2023-06-22T12:36:12;18.80;99.90
18906;DHT22;9585;51.018;4.282;2023-06-22T12:38:39;18.70;99.90
18906;DHT22;9585;51.018;4.282;2023-06-22T12:41:07;18.70;99.90
18906;DHT22;9585;51.018;4.282;2023-06-22T12:43:34;18.60;99.90
18906;DHT22;9585;51.018;4.282;2023-06-22T12:46:02;18.50;99.90
18906;DHT22;9585;51.018;4.282;2023-06-22T12:48:30;18.50;99.90
18906;DHT22;9585;51.018;4.282;2023-06-22T12:50:57;18.40;99.90
18906;DHT22;9585;51.018;4.282;2023-06-22T12:53:26;18.40;99.90
18906;DHT22;9585;51.018;4.282;2023-06-22T12:55:54;18.40;99.90
18906;DHT22;9585;51.018;4.282;2023-06-22T12:58:22;18.30;99.90
18906;DHT22;9585;51.018;4.282;2023-06-22T13:00:49;18.20;99.90
18906;DHT22;9585;51.018;4.282;2023-06-22T13:03:17;18.20;99.90
18906;DHT22;9585;51.018;4.282;2023-06-22T13:05:44;18.10;99.90
18906;DHT22;9585;51.018;4.282;2023-06-22T13:08:12;18.10;99.90
18906;DHT22;9585;51.018;4.282;2023-06-22T13:10:41;18.00;99.90
18906;DHT22;9585;51.018;4.282;2023-06-22T13:13:09;17.90;99.90
18906;DHT22;9585;51.018;4.282;2023-06-22T13:15:40;17.80;99.90
18906;DHT22;9585;51.018;4.282;2023-06-22T13:18:07;17.80;99.90
18906;DHT22;9585;51.018;4.282;2023-06-22T13:20:35;17.70;99.90
18906;DHT22;9585;51.018;4.282;2023-06-22T13:23:02;17.60;99.90
18906;DHT22;9585;51.018;4.282;2023-06-22T13:25:30;17.50;99.90
18906;DHT22;9585;51.018;4.282;2023-06-22T13:27:59;17.50;99.90
18906;DHT22;9585;51.018;4.282;2023-06-22T13:30:26;17.50;99.90
18906;DHT22;9585;51.018;4.282;2023-06-22T13:32:54;17.50;99.90
18906;DHT22;9585;51.018;4.282;2023-06-22T13:35:22;17.50;99.90
18906;DHT22;9585;51.018;4.282;2023-06-22T13:37:49;17.50;99.90
18906;DHT22;9585;51.018;4.282;2023-06-22T13:40:17;17.50;99.90
18906;DHT22;9585;51.018;4.282;2023-06-22T13:42:44;17.40;99.90
18906;DHT22;9585;51.018;4.282;2023-06-22T13:45:13;17.30;99.90
18906;DHT22;9585;51.018;4.282;2023-06-22T13:47:42;17.30;99.90
18906;DHT22;9585;51.018;4.282;2023-06-22T13:50:10;17.40;99.90
18906;DHT22;9585;51.018;4.282;2023-06-22T13:52:38;17.30;99.90
18906;DHT22;9585;51.018;4.282;2023-06-22T13:55:06;17.30;99.90
18906;DHT22;9585;51.018;4.282;2023-06-22T13:57:34;17.30;99.90
18906;DHT22;9585;51.018;4.282;2023-06-22T14:00:01;17.30;99.90
18906;DHT22;9585;51.018;4.282;2023-06-22T14:02:31;17.30;99.90
18906;DHT22;9585;51.018;4.282;2023-06-22T14:04:58;17.20;99.90
18906;DHT22;9585;51.018;4.282;2023-06-22T14:07:26;17.20;99.90
18906;DHT22;9585;51.018;4.282;2023-06-22T14:09:53;17.10;99.90
18906;DHT22;9585;51.018;4.282;2023-06-22T14:12:21;17.10;99.90
18906;DHT22;9585;51.018;4.282;2023-06-22T14:14:51;17.10;99.90
18906;DHT22;9585;51.018;4.282;2023-06-22T14:17:19;17.00;99.90
18906;DHT22;9585;51.018;4.282;2023-06-22T14:19:52;17.10;99.90
18906;DHT22;9585;51.018;4.282;2023-06-22T14:22:21;17.00;99.90
18906;DHT22;9585;51.018;4.282;2023-06-22T14:24:49;17.00;99.90
18906;DHT22;9585;51.018;4.282;2023-06-22T14:27:16;17.00;99.90
18906;DHT22;9585;51.018;4.282;2023-06-22T14:29:44;17.10;99.90
18906;DHT22;9585;51.018;4.282;2023-06-22T14:32:11;17.20;99.90
18906;DHT22;9585;51.018;4.282;2023-06-22T14:34:39;17.30;99.90
18906;DHT22;9585;51.018;4.282;2023-06-22T14:37:08;17.30;99.90
18906;DHT22;9585;51.018;4.282;2023-06-22T14:39:36;17.40;99.90
18906;DHT22;9585;51.018;4.282;2023-06-22T14:42:04;17.30;99.90
18906;DHT22;9585;51.018;4.282;2023-06-22T14:44:36;17.40;99.90
18906;DHT22;9585;51.018;4.282;2023-06-22T14:47:04;17.40;99.90
18906;DHT22;9585;51.018;4.282;2023-06-22T14:49:32;17.50;99.90
18906;DHT22;9585;51.018;4.282;2023-06-22T14:52:01;17.60;99.90
18906;DHT22;9585;51.018;4.282;2023-06-22T14:54:30;17.60;99.90
18906;DHT22;9585;51.018;4.282;2023-06-22T14:56:58;17.70;99.90
18906;DHT22;9585;51.018;4.282;2023-06-22T14:59:26;17.90;99.90
18906;DHT22;9585;51.018;4.282;2023-06-22T15:01:54;18.00;99.90
18906;DHT22;9585;51.018;4.282;2023-06-22T15:04:21;18.10;99.90
18906;DHT22;9585;51.018;4.282;2023-06-22T15:06:49;18.10;99.90
18906;DHT22;9585;51.018;4.282;2023-06-22T15:09:16;18.20;99.90
18906;DHT22;9585;51.018;4.282;2023-06-22T15:11:45;18.30;99.90
18906;DHT22;9585;51.018;4.282;2023-06-22T15:14:14;18.30;99.90
18906;DHT22;9585;51.018;4.282;2023-06-22T15:16:41;18.30;99.90
18906;DHT22;9585;51.018;4.282;2023-06-22T15:19:09;18.40;99.90
18906;DHT22;9585;51.018;4.282;2023-06-22T15:21:38;18.40;99.90
18906;DHT22;9585;51.018;4.282;2023-06-22T15:24:06;18.40;99.90
18906;DHT22;9585;51.018;4.282;2023-06-22T15:26:33;18.40;99.90
18906;DHT22;9585;51.018;4.282;2023-06-22T15:29:02;18.40;99.90
18906;DHT22;9585;51.018;4.282;2023-06-22T15:31:29;18.60;99.90
18906;DHT22;9585;51.018;4.282;2023-06-22T15:33:57;18.60;99.90
18906;DHT22;9585;51.018;4.282;2023-06-22T15:36:24;18.60;99.90
18906;DHT22;9585;51.018;4.282;2023-06-22T15:38:51;18.60;99.90
18906;DHT22;9585;51.018;4.282;2023-06-22T15:41:19;18.60;99.90
18906;DHT22;9585;51.018;4.282;2023-06-22T15:43:46;18.60;99.90
18906;DHT22;9585;51.018;4.282;2023-06-22T15:46:15;18.60;99.90
18906;DHT22;9585;51.018;4.282;2023-06-22T15:48:43;18.60;99.90
18906;DHT22;9585;51.018;4.282;2023-06-22T15:51:10;18.60;99.90
18906;DHT22;9585;51.018;4.282;2023-06-22T15:53:38;18.70;99.90
18906;DHT22;9585;51.018;4.282;2023-06-22T15:56:07;18.70;99.90
18906;DHT22;9585;51.018;4.282;2023-06-22T15:58:35;18.60;99.90